Time,TemperatureF,DewpointF,PressureIn,WindDirection,WindDirectionDegrees,WindSpeedMPH,WindSpeedGustMPH,Humidity,HourlyPrecipIn,Conditions,Clouds,dailyrainin,SoftwareType,DateUTC
2013-04-03 00:32:00,28.0,-99.9,-100.00,NE,47,5.0,8.0,-999,-99.99,,,-99.99,,2013-04-03 06:32:00,
2013-04-03 00:43:00,28.0,-99.9,-100.00,NE,47,5.0,8.0,-999,-99.99,,,-99.99,,2013-04-03 06:43:00,
2013-04-03 00:52:00,28.0,-99.9,-100.00,NE,47,5.0,8.0,-999,-99.99,,,-99.99,,2013-04-03 06:52:00,
2013-04-03 01:33:00,28.0,-99.9,-100.00,NE,54,0.0,3.0,-999,-99.99,,,-99.99,,2013-04-03 07:33:00,
2013-04-03 01:43:00,28.0,-99.9,-100.00,NE,54,0.0,3.0,-999,-99.99,,,-99.99,,2013-04-03 07:43:00,
2013-04-03 01:53:00,28.0,-99.9,-100.00,NE,54,0.0,3.0,-999,-99.99,,,-99.99,,2013-04-03 07:53:00,
2013-04-03 02:33:00,25.0,-99.9,-100.00,NNE,27,3.0,4.0,-999,-99.99,,,-99.99,,2013-04-03 08:33:00,
2013-04-03 02:43:00,25.0,-99.9,-100.00,NNE,27,3.0,4.0,-999,-99.99,,,-99.99,,2013-04-03 08:43:00,
2013-04-03 02:50:00,23.0,-99.9,-100.00,North,8,3.0,6.0,-999,-99.99,,,-99.99,,2013-04-03 08:50:00,
2013-04-03 02:52:00,25.0,-99.9,-100.00,NNE,27,3.0,4.0,-999,-99.99,,,-99.99,,2013-04-03 08:52:00,
2013-04-03 03:33:00,23.0,-99.9,-100.00,North,8,3.0,6.0,-999,-99.99,,,-99.99,,2013-04-03 09:33:00,
2013-04-03 03:43:00,23.0,-99.9,-100.00,North,8,3.0,6.0,-999,-99.99,,,-99.99,,2013-04-03 09:43:00,
2013-04-03 03:50:00,23.0,-99.9,-100.00,North,3,3.0,5.0,-999,-99.99,,,-99.99,,2013-04-03 09:50:00,
2013-04-03 04:33:00,23.0,-99.9,-100.00,North,3,3.0,5.0,-999,-99.99,,,-99.99,,2013-04-03 10:33:00,
2013-04-03 04:43:00,23.0,-99.9,-100.00,North,3,3.0,5.0,-999,-99.99,,,-99.99,,2013-04-03 10:43:00,
2013-04-03 04:50:00,23.0,-99.9,-100.00,North,1,5.0,7.0,-999,-99.99,,,-99.99,,2013-04-03 10:50:00,
2013-04-03 05:33:00,23.0,-99.9,-100.00,North,1,5.0,7.0,-999,-99.99,,,-99.99,,2013-04-03 11:33:00,
2013-04-03 05:43:00,23.0,-99.9,-100.00,North,1,5.0,7.0,-999,-99.99,,,-99.99,,2013-04-03 11:43:00,
2013-04-03 05:50:00,23.0,-99.9,-100.00,East,93,8.0,11.0,-999,-99.99,,,-99.99,,2013-04-03 11:50:00,
2013-04-03 06:33:00,23.0,-99.9,-100.00,East,93,8.0,11.0,-999,-99.99,,,-99.99,,2013-04-03 12:33:00,
2013-04-03 06:42:00,23.0,-99.9,-100.00,East,93,8.0,11.0,-999,-99.99,,,-99.99,,2013-04-03 12:42:00,
2013-04-03 06:50:00,23.0,-99.9,-100.00,East,87,9.0,11.0,-999,-99.99,,,-99.99,,2013-04-03 12:50:00,
2013-04-03 07:32:00,23.0,-99.9,-100.00,East,87,9.0,11.0,-999,-99.99,,,-99.99,,2013-04-03 13:32:00,
2013-04-03 07:42:00,23.0,-99.9,-100.00,East,87,9.0,11.0,-999,-99.99,,,-99.99,,2013-04-03 13:42:00,
2013-04-03 07:50:00,27.0,-99.9,-100.00,ENE,76,19.0,19.0,-999,-99.99,,,-99.99,,2013-04-03 13:50:00,
2013-04-03 08:32:00,27.0,-99.9,-100.00,ENE,76,19.0,19.0,-999,-99.99,,,-99.99,,2013-04-03 14:32:00,
2013-04-03 08:43:00,27.0,-99.9,-100.00,ENE,76,19.0,19.0,-999,-99.99,,,-99.99,,2013-04-03 14:43:00,
2013-04-03 08:50:00,30.0,-99.9,-100.00,East,82,15.0,20.0,-999,-99.99,,,-99.99,,2013-04-03 14:50:00,
2013-04-03 09:33:00,30.0,-99.9,-100.00,East,82,15.0,20.0,-999,-99.99,,,-99.99,,2013-04-03 15:33:00,
2013-04-03 09:43:00,30.0,-99.9,-100.00,East,82,15.0,20.0,-999,-99.99,,,-99.99,,2013-04-03 15:43:00,
2013-04-03 09:50:00,34.0,-99.9,-100.00,ENE,68,8.0,18.0,-999,-99.99,,,-99.99,,2013-04-03 15:50:00,
2013-04-03 10:33:00,34.0,-99.9,-100.00,ENE,68,8.0,18.0,-999,-99.99,,,-99.99,,2013-04-03 16:33:00,
2013-04-03 10:44:00,34.0,-99.9,-100.00,ENE,68,8.0,18.0,-999,-99.99,,,-99.99,,2013-04-03 16:44:00,
2013-04-03 10:50:00,37.0,-99.9,-100.00,ENE,70,12.0,22.0,-999,-99.99,,,-99.99,,2013-04-03 16:50:00,
2013-04-03 11:35:00,37.0,-99.9,-100.00,ENE,70,12.0,22.0,-999,-99.99,,,-99.99,,2013-04-03 17:35:00,
2013-04-03 11:47:00,37.0,-99.9,-100.00,ENE,70,12.0,22.0,-999,-99.99,,,-99.99,,2013-04-03 17:47:00,
2013-04-03 11:50:00,41.0,-99.9,-100.00,North,3,19.0,25.0,-999,-99.99,,,-99.99,,2013-04-03 17:50:00,
2013-04-03 12:35:00,41.0,-99.9,-100.00,North,3,19.0,25.0,-999,-99.99,,,-99.99,,2013-04-03 18:35:00,
2013-04-03 12:43:00,41.0,-99.9,-100.00,North,3,19.0,25.0,-999,-99.99,,,-99.99,,2013-04-03 18:43:00,
2013-04-03 12:50:00,45.0,-99.9,-100.00,North,3,14.0,21.0,-999,-99.99,,,-99.99,,2013-04-03 18:50:00,
2013-04-03 13:33:00,45.0,-99.9,-100.00,North,3,14.0,21.0,-999,-99.99,,,-99.99,,2013-04-03 19:33:00,
2013-04-03 13:42:00,45.0,-99.9,-100.00,North,3,14.0,21.0,-999,-99.99,,,-99.99,,2013-04-03 19:42:00,
2013-04-03 13:50:00,46.0,-99.9,-100.00,NNE,15,25.0,25.0,-999,-99.99,,,-99.99,,2013-04-03 19:50:00,
2013-04-03 14:33:00,46.0,-99.9,-100.00,NNE,15,25.0,25.0,-999,-99.99,,,-99.99,,2013-04-03 20:33:00,
2013-04-03 14:42:00,46.0,-99.9,-100.00,NNE,15,25.0,25.0,-999,-99.99,,,-99.99,,2013-04-03 20:42:00,
2013-04-03 14:50:00,48.0,-99.9,-100.00,ENE,59,10.0,27.0,-999,-99.99,,,-99.99,,2013-04-03 20:50:00,
2013-04-03 15:33:00,48.0,-99.9,-100.00,ENE,59,10.0,27.0,-999,-99.99,,,-99.99,,2013-04-03 21:33:00,
2013-04-03 15:42:00,48.0,-99.9,-100.00,ENE,59,10.0,27.0,-999,-99.99,,,-99.99,,2013-04-03 21:42:00,
2013-04-03 15:50:00,50.0,-99.9,-100.00,NNE,18,23.0,28.0,-999,-99.99,,,-99.99,,2013-04-03 21:50:00,
2013-04-03 16:33:00,50.0,-99.9,-100.00,NNE,18,23.0,28.0,-999,-99.99,,,-99.99,,2013-04-03 22:33:00,
2013-04-03 16:42:00,50.0,-99.9,-100.00,NNE,18,23.0,28.0,-999,-99.99,,,-99.99,,2013-04-03 22:42:00,
2013-04-03 16:50:00,50.0,-99.9,-100.00,NE,41,27.0,27.0,-999,-99.99,,,-99.99,,2013-04-03 22:50:00,
2013-04-03 17:33:00,50.0,-99.9,-100.00,NE,41,27.0,27.0,-999,-99.99,,,-99.99,,2013-04-03 23:33:00,
2013-04-03 17:43:00,50.0,-99.9,-100.00,NE,41,27.0,27.0,-999,-99.99,,,-99.99,,2013-04-03 23:43:00,
2013-04-03 18:33:00,48.0,-99.9,-100.00,NNE,24,23.0,30.0,-999,-99.99,,,-99.99,,2013-04-04 00:33:00,
2013-04-03 18:43:00,48.0,-99.9,-100.00,NNE,24,23.0,30.0,-999,-99.99,,,-99.99,,2013-04-04 00:43:00,
2013-04-03 19:32:00,45.0,-99.9,-100.00,NE,46,15.0,20.0,-999,-99.99,,,-99.99,,2013-04-04 01:32:00,
2013-04-03 19:43:00,45.0,-99.9,-100.00,NE,46,15.0,20.0,-999,-99.99,,,-99.99,,2013-04-04 01:43:00,
2013-04-03 20:33:00,41.0,-99.9,-100.00,North,4,30.0,35.0,-999,-99.99,,,-99.99,,2013-04-04 02:33:00,
2013-04-03 20:42:00,41.0,-99.9,-100.00,North,4,30.0,35.0,-999,-99.99,,,-99.99,,2013-04-04 02:42:00,
2013-04-03 20:45:00,34.0,-99.9,-100.00,NE,45,8.0,10.0,-999,-99.99,,,-99.99,,2013-04-04 02:45:00,
2013-04-03 21:34:00,34.0,-99.9,-100.00,NE,45,8.0,10.0,-999,-99.99,,,-99.99,,2013-04-04 03:34:00,
2013-04-03 22:34:00,36.0,-99.9,-100.00,ENE,78,4.0,5.0,-999,-99.99,,,-99.99,,2013-04-04 04:34:00,
2013-04-03 22:43:00,36.0,-99.9,-100.00,ENE,78,4.0,5.0,-999,-99.99,,,-99.99,,2013-04-04 04:43:00,
2013-04-03 23:33:00,36.0,-99.9,-100.00,ENE,68,6.0,10.0,-999,-99.99,,,-99.99,,2013-04-04 05:33:00,
2013-04-03 23:42:00,36.0,-99.9,-100.00,ENE,68,6.0,10.0,-999,-99.99,,,-99.99,,2013-04-04 05:42:00,